메인 페이지
METAR-TAF:

METAR-TAF

공항 :

Naval Air Station JRB Fort Worth (Carswell Field)

포트워스, 텍사스, 미국

위도: 32-45-57N, 경도: 097-26-00W, 고도: 198m

현재 날씨관측

예보는 57분 전, 17:52시(UTC)에 발표되었습니다.
11kt
온도 18°C
습도 24%
기압 1024 hPa
시정: 16.1km
고도 25000ft 상공 구름 보통

METAR: KNFW 161752Z 19011KT 10SM SCT250 18/M03 A3024 RMK AO2 SLP223 T01831033 10183 20044 58002 VISNO N $

시각: 12:49 (18:49 UTC)

예보

예보 대상 시간: 16일 15시부터 17일 15시까지 (UTC)
남남동5kt
시정 10km 이상
고도 25000ft 상공 구름 보통
전환 중
16일 17시부터 16일 19시까지 (UTC)
남서8kt
고도 18000ft 상공 구름 보통
전환 중
17일 01시부터 17일 03시까지 (UTC)
여러 방향의 바람 6kt
고도 15000ft 상공 구름 조금
고도 25000ft 상공 구름 보통

TAF: KNFW 1615/1715 16005KT 9999 SCT250 QNH3020INS BECMG 1617/1619 23008KT SCT180 QNH3019INS BECMG 1701/1703 VRB06KT FEW150 SCT250 QNH3021INS T21/1621Z T04/1712Z FN00247

4,000개 이상의 공항 관측 자료 및 예보 (METAR 및 TAF 보고).

지도상에서 검색 가능한 기상관측소가 노란 점과 빨간 점으로 표시되어 있습니다.

기상관측소 명을 보려면 표시 위로 마우스를 이동하세요.

날씨 관측과 예보를 보려면 클릭하세요.

지도 변경 : 확대하려면 엑스 표시가 있는 녹색 버튼, 축소하려면 빼기 표시가 있는 녹색 버튼, 다음 페이지의 지도를 보려면 녹색 화살표를 클릭하세요.


METAR-TAF: